sensor_id;sensor_type;location;lat;lon;timestamp;temperature;humidity
27741;DHT22;15134;48.768;9.184;2023-09-19T00:00:20;18.90;99.90
27741;DHT22;15134;48.768;9.184;2023-09-19T00:02:52;18.80;99.90
27741;DHT22;15134;48.768;9.184;2023-09-19T00:05:21;18.80;99.90
27741;DHT22;15134;48.768;9.184;2023-09-19T00:07:50;18.80;99.90
27741;DHT22;15134;48.768;9.184;2023-09-19T00:10:22;18.80;99.90
27741;DHT22;15134;48.768;9.184;2023-09-19T00:12:54;18.80;99.90
27741;DHT22;15134;48.768;9.184;2023-09-19T00:15:27;18.80;99.90
27741;DHT22;15134;48.768;9.184;2023-09-19T00:18:01;18.70;99.90
27741;DHT22;15134;48.768;9.184;2023-09-19T00:20:27;18.70;99.90
27741;DHT22;15134;48.768;9.184;2023-09-19T00:22:53;18.60;99.90
27741;DHT22;15134;48.768;9.184;2023-09-19T00:25:37;18.70;99.90
27741;DHT22;15134;48.768;9.184;2023-09-19T00:28:07;18.70;99.90
27741;DHT22;15134;48.768;9.184;2023-09-19T00:30:34;18.60;99.90
27741;DHT22;15134;48.768;9.184;2023-09-19T00:32:59;18.50;99.90
27741;DHT22;15134;48.768;9.184;2023-09-19T00:35:26;18.50;99.90
27741;DHT22;15134;48.768;9.184;2023-09-19T00:37:53;18.50;99.90
27741;DHT22;15134;48.768;9.184;2023-09-19T00:40:22;18.50;99.90
27741;DHT22;15134;48.768;9.184;2023-09-19T00:42:48;18.50;99.90
27741;DHT22;15134;48.768;9.184;2023-09-19T00:45:16;18.50;99.90
27741;DHT22;15134;48.768;9.184;2023-09-19T00:47:51;18.50;99.90
27741;DHT22;15134;48.768;9.184;2023-09-19T00:50:22;18.40;99.90
27741;DHT22;15134;48.768;9.184;2023-09-19T00:52:50;18.40;99.90
27741;DHT22;15134;48.768;9.184;2023-09-19T00:55:18;18.40;99.90
27741;DHT22;15134;48.768;9.184;2023-09-19T00:57:46;18.40;99.90
27741;DHT22;15134;48.768;9.184;2023-09-19T01:00:12;18.40;99.90
27741;DHT22;15134;48.768;9.184;2023-09-19T01:02:46;18.40;99.90
27741;DHT22;15134;48.768;9.184;2023-09-19T01:05:13;18.40;99.90
27741;DHT22;15134;48.768;9.184;2023-09-19T01:07:40;18.40;99.90
27741;DHT22;15134;48.768;9.184;2023-09-19T01:10:17;18.30;99.90
27741;DHT22;15134;48.768;9.184;2023-09-19T01:21:52;18.40;99.90
27741;DHT22;15134;48.768;9.184;2023-09-19T01:29:46;18.30;99.90
27741;DHT22;15134;48.768;9.184;2023-09-19T01:32:17;18.40;99.90
27741;DHT22;15134;48.768;9.184;2023-09-19T01:37:16;18.50;99.90
27741;DHT22;15134;48.768;9.184;2023-09-19T01:40:02;18.50;99.90
27741;DHT22;15134;48.768;9.184;2023-09-19T01:48:19;18.60;99.90
27741;DHT22;15134;48.768;9.184;2023-09-19T01:51:05;18.60;99.90
27741;DHT22;15134;48.768;9.184;2023-09-19T01:54:16;18.60;99.90
27741;DHT22;15134;48.768;9.184;2023-09-19T01:59:53;18.50;99.90
27741;DHT22;15134;48.768;9.184;2023-09-19T02:02:23;18.50;99.90
27741;DHT22;15134;48.768;9.184;2023-09-19T02:04:50;18.40;99.90
27741;DHT22;15134;48.768;9.184;2023-09-19T02:07:16;18.40;99.90
27741;DHT22;15134;48.768;9.184;2023-09-19T02:09:42;18.40;99.90
27741;DHT22;15134;48.768;9.184;2023-09-19T02:12:09;18.50;99.90
27741;DHT22;15134;48.768;9.184;2023-09-19T02:14:35;18.50;99.90
27741;DHT22;15134;48.768;9.184;2023-09-19T02:17:04;18.50;99.90
27741;DHT22;15134;48.768;9.184;2023-09-19T02:19:38;18.50;99.90
27741;DHT22;15134;48.768;9.184;2023-09-19T02:22:06;18.50;99.90
27741;DHT22;15134;48.768;9.184;2023-09-19T02:24:34;18.40;99.90
27741;DHT22;15134;48.768;9.184;2023-09-19T02:27:00;18.40;99.90
27741;DHT22;15134;48.768;9.184;2023-09-19T02:29:30;18.40;99.90
27741;DHT22;15134;48.768;9.184;2023-09-19T02:31:58;18.40;99.90
27741;DHT22;15134;48.768;9.184;2023-09-19T02:34:24;18.40;99.90
27741;DHT22;15134;48.768;9.184;2023-09-19T02:36:51;18.40;99.90
27741;DHT22;15134;48.768;9.184;2023-09-19T02:39:19;18.40;99.90
27741;DHT22;15134;48.768;9.184;2023-09-19T02:41:45;18.40;99.90
27741;DHT22;15134;48.768;9.184;2023-09-19T02:44:13;18.40;99.90
27741;DHT22;15134;48.768;9.184;2023-09-19T02:46:42;18.40;99.90
27741;DHT22;15134;48.768;9.184;2023-09-19T02:49:08;18.30;99.90
27741;DHT22;15134;48.768;9.184;2023-09-19T02:51:34;18.30;99.90
27741;DHT22;15134;48.768;9.184;2023-09-19T02:54:00;18.30;99.90
27741;DHT22;15134;48.768;9.184;2023-09-19T02:56:25;18.30;99.90
27741;DHT22;15134;48.768;9.184;2023-09-19T02:58:52;18.30;99.90
27741;DHT22;15134;48.768;9.184;2023-09-19T03:01:24;18.30;99.90
27741;DHT22;15134;48.768;9.184;2023-09-19T03:03:50;18.30;99.90
27741;DHT22;15134;48.768;9.184;2023-09-19T03:06:16;18.30;99.90
27741;DHT22;15134;48.768;9.184;2023-09-19T03:08:48;18.40;99.90
27741;DHT22;15134;48.768;9.184;2023-09-19T03:11:15;18.40;99.90
27741;DHT22;15134;48.768;9.184;2023-09-19T03:13:50;18.50;99.90
27741;DHT22;15134;48.768;9.184;2023-09-19T03:16:16;18.50;99.90
27741;DHT22;15134;48.768;9.184;2023-09-19T03:18:42;18.50;99.90
27741;DHT22;15134;48.768;9.184;2023-09-19T03:21:08;18.50;99.90
27741;DHT22;15134;48.768;9.184;2023-09-19T03:23:34;18.50;99.90
27741;DHT22;15134;48.768;9.184;2023-09-19T03:26:00;18.40;99.90
27741;DHT22;15134;48.768;9.184;2023-09-19T03:28:33;18.40;99.90
27741;DHT22;15134;48.768;9.184;2023-09-19T03:31:03;18.40;99.90
27741;DHT22;15134;48.768;9.184;2023-09-19T03:33:30;18.40;99.90
27741;DHT22;15134;48.768;9.184;2023-09-19T03:36:01;18.40;99.90
27741;DHT22;15134;48.768;9.184;2023-09-19T03:38:39;18.50;99.90
27741;DHT22;15134;48.768;9.184;2023-09-19T03:41:06;18.50;99.90
27741;DHT22;15134;48.768;9.184;2023-09-19T03:43:34;18.50;99.90
27741;DHT22;15134;48.768;9.184;2023-09-19T03:46:02;18.40;99.90
27741;DHT22;15134;48.768;9.184;2023-09-19T03:48:31;18.40;99.90
27741;DHT22;15134;48.768;9.184;2023-09-19T03:50:58;18.40;99.90
27741;DHT22;15134;48.768;9.184;2023-09-19T03:53:24;18.40;99.90
27741;DHT22;15134;48.768;9.184;2023-09-19T03:55:50;18.40;99.90
27741;DHT22;15134;48.768;9.184;2023-09-19T03:58:18;18.40;99.90
27741;DHT22;15134;48.768;9.184;2023-09-19T04:00:46;18.50;99.90
27741;DHT22;15134;48.768;9.184;2023-09-19T04:03:12;18.50;99.90
27741;DHT22;15134;48.768;9.184;2023-09-19T04:05:48;18.50;99.90
27741;DHT22;15134;48.768;9.184;2023-09-19T04:08:13;18.50;99.90
27741;DHT22;15134;48.768;9.184;2023-09-19T04:10:43;18.50;99.90
27741;DHT22;15134;48.768;9.184;2023-09-19T04:13:10;18.40;99.90
27741;DHT22;15134;48.768;9.184;2023-09-19T04:15:36;18.40;99.90
27741;DHT22;15134;48.768;9.184;2023-09-19T04:18:03;18.30;99.90
27741;DHT22;15134;48.768;9.184;2023-09-19T04:20:29;18.30;99.90
27741;DHT22;15134;48.768;9.184;2023-09-19T04:22:56;18.20;99.90
27741;DHT22;15134;48.768;9.184;2023-09-19T04:25:21;18.20;99.90
27741;DHT22;15134;48.768;9.184;2023-09-19T04:27:47;18.30;99.90
27741;DHT22;15134;48.768;9.184;2023-09-19T04:30:13;18.30;99.90
27741;DHT22;15134;48.768;9.184;2023-09-19T04:32:40;18.30;99.90
27741;DHT22;15134;48.768;9.184;2023-09-19T04:35:08;18.30;99.90
27741;DHT22;15134;48.768;9.184;2023-09-19T04:37:38;18.30;99.90
27741;DHT22;15134;48.768;9.184;2023-09-19T04:40:07;18.30;99.90
27741;DHT22;15134;48.768;9.184;2023-09-19T04:42:40;18.30;99.90
27741;DHT22;15134;48.768;9.184;2023-09-19T04:45:13;18.30;99.90
27741;DHT22;15134;48.768;9.184;2023-09-19T04:47:39;18.30;99.90
27741;DHT22;15134;48.768;9.184;2023-09-19T04:50:07;18.30;99.90
27741;DHT22;15134;48.768;9.184;2023-09-19T04:52:33;18.30;99.90
27741;DHT22;15134;48.768;9.184;2023-09-19T04:54:59;18.30;99.90
27741;DHT22;15134;48.768;9.184;2023-09-19T04:57:24;18.40;99.90
27741;DHT22;15134;48.768;9.184;2023-09-19T04:59:51;18.30;99.90
27741;DHT22;15134;48.768;9.184;2023-09-19T05:02:17;18.30;99.90
27741;DHT22;15134;48.768;9.184;2023-09-19T05:04:43;18.30;99.90
27741;DHT22;15134;48.768;9.184;2023-09-19T05:07:09;18.30;99.90
27741;DHT22;15134;48.768;9.184;2023-09-19T05:09:37;18.30;99.90
27741;DHT22;15134;48.768;9.184;2023-09-19T05:12:03;18.30;99.90
27741;DHT22;15134;48.768;9.184;2023-09-19T05:14:28;18.20;99.90
27741;DHT22;15134;48.768;9.184;2023-09-19T05:16:55;18.20;99.90
27741;DHT22;15134;48.768;9.184;2023-09-19T05:19:21;18.10;99.90
27741;DHT22;15134;48.768;9.184;2023-09-19T05:21:46;18.10;99.90
27741;DHT22;15134;48.768;9.184;2023-09-19T05:24:12;18.10;99.90
27741;DHT22;15134;48.768;9.184;2023-09-19T05:26:40;18.00;99.90
27741;DHT22;15134;48.768;9.184;2023-09-19T05:29:05;18.10;99.90
27741;DHT22;15134;48.768;9.184;2023-09-19T05:31:33;18.00;99.90
27741;DHT22;15134;48.768;9.184;2023-09-19T05:34:04;18.00;99.90
27741;DHT22;15134;48.768;9.184;2023-09-19T05:36:31;18.00;99.90
27741;DHT22;15134;48.768;9.184;2023-09-19T05:38:57;18.10;99.90
27741;DHT22;15134;48.768;9.184;2023-09-19T05:41:23;18.10;99.90
27741;DHT22;15134;48.768;9.184;2023-09-19T05:43:52;18.00;99.90
27741;DHT22;15134;48.768;9.184;2023-09-19T05:46:18;18.00;99.90
27741;DHT22;15134;48.768;9.184;2023-09-19T05:48:46;18.10;99.90
27741;DHT22;15134;48.768;9.184;2023-09-19T05:51:13;18.10;99.90
27741;DHT22;15134;48.768;9.184;2023-09-19T05:53:39;18.20;99.90
27741;DHT22;15134;48.768;9.184;2023-09-19T05:56:10;18.10;99.90
27741;DHT22;15134;48.768;9.184;2023-09-19T05:58:36;17.90;99.90
27741;DHT22;15134;48.768;9.184;2023-09-19T06:01:02;17.80;99.90
27741;DHT22;15134;48.768;9.184;2023-09-19T06:03:32;17.70;99.90
27741;DHT22;15134;48.768;9.184;2023-09-19T06:06:03;17.80;99.90
27741;DHT22;15134;48.768;9.184;2023-09-19T06:08:29;17.80;99.90
27741;DHT22;15134;48.768;9.184;2023-09-19T06:10:56;17.80;99.90
27741;DHT22;15134;48.768;9.184;2023-09-19T06:13:22;17.80;99.90
27741;DHT22;15134;48.768;9.184;2023-09-19T06:15:48;17.90;99.90
27741;DHT22;15134;48.768;9.184;2023-09-19T06:18:15;18.00;99.90
27741;DHT22;15134;48.768;9.184;2023-09-19T06:20:48;18.10;99.90
27741;DHT22;15134;48.768;9.184;2023-09-19T06:23:16;18.10;99.90
27741;DHT22;15134;48.768;9.184;2023-09-19T06:25:43;18.10;99.90
27741;DHT22;15134;48.768;9.184;2023-09-19T06:28:09;18.00;99.90
27741;DHT22;15134;48.768;9.184;2023-09-19T06:30:37;18.00;99.90
27741;DHT22;15134;48.768;9.184;2023-09-19T06:33:06;18.00;99.90
27741;DHT22;15134;48.768;9.184;2023-09-19T06:35:35;18.00;99.90
27741;DHT22;15134;48.768;9.184;2023-09-19T06:38:04;18.00;99.90
27741;DHT22;15134;48.768;9.184;2023-09-19T06:40:31;18.00;99.90
27741;DHT22;15134;48.768;9.184;2023-09-19T06:42:57;18.10;99.90
27741;DHT22;15134;48.768;9.184;2023-09-19T06:45:23;18.20;99.90
27741;DHT22;15134;48.768;9.184;2023-09-19T06:47:54;18.20;99.90
27741;DHT22;15134;48.768;9.184;2023-09-19T06:50:23;18.30;99.90
27741;DHT22;15134;48.768;9.184;2023-09-19T06:52:50;18.40;99.90
27741;DHT22;15134;48.768;9.184;2023-09-19T06:55:22;18.40;99.90
27741;DHT22;15134;48.768;9.184;2023-09-19T06:57:54;18.60;99.90
27741;DHT22;15134;48.768;9.184;2023-09-19T07:00:20;18.70;99.90
27741;DHT22;15134;48.768;9.184;2023-09-19T07:03:06;18.70;99.90
27741;DHT22;15134;48.768;9.184;2023-09-19T07:05:34;18.90;99.90
27741;DHT22;15134;48.768;9.184;2023-09-19T07:08:07;19.00;99.90
27741;DHT22;15134;48.768;9.184;2023-09-19T07:10:33;19.10;99.90
27741;DHT22;15134;48.768;9.184;2023-09-19T07:13:01;19.20;99.90
27741;DHT22;15134;48.768;9.184;2023-09-19T07:15:29;19.30;99.90
27741;DHT22;15134;48.768;9.184;2023-09-19T07:17:59;19.30;99.90
27741;DHT22;15134;48.768;9.184;2023-09-19T07:20:26;19.30;99.90
27741;DHT22;15134;48.768;9.184;2023-09-19T07:22:54;19.30;99.90
27741;DHT22;15134;48.768;9.184;2023-09-19T07:25:25;19.30;99.90
27741;DHT22;15134;48.768;9.184;2023-09-19T07:27:51;19.30;99.90
27741;DHT22;15134;48.768;9.184;2023-09-19T07:30:17;19.20;99.90
27741;DHT22;15134;48.768;9.184;2023-09-19T07:32:43;19.20;99.90
27741;DHT22;15134;48.768;9.184;2023-09-19T07:35:09;19.30;99.90
27741;DHT22;15134;48.768;9.184;2023-09-19T07:37:35;19.40;99.90
27741;DHT22;15134;48.768;9.184;2023-09-19T07:40:05;19.60;99.90
27741;DHT22;15134;48.768;9.184;2023-09-19T07:42:35;19.80;99.90
27741;DHT22;15134;48.768;9.184;2023-09-19T07:45:07;20.10;99.90
27741;DHT22;15134;48.768;9.184;2023-09-19T07:47:34;20.30;99.90
27741;DHT22;15134;48.768;9.184;2023-09-19T07:50:02;20.50;99.90
27741;DHT22;15134;48.768;9.184;2023-09-19T07:52:30;20.80;99.90
27741;DHT22;15134;48.768;9.184;2023-09-19T07:54:59;21.10;99.90
27741;DHT22;15134;48.768;9.184;2023-09-19T07:57:32;21.30;99.90
27741;DHT22;15134;48.768;9.184;2023-09-19T08:00:03;21.50;99.90
27741;DHT22;15134;48.768;9.184;2023-09-19T08:02:37;21.50;99.90
27741;DHT22;15134;48.768;9.184;2023-09-19T08:05:10;21.50;99.90
27741;DHT22;15134;48.768;9.184;2023-09-19T08:07:44;21.60;99.90
27741;DHT22;15134;48.768;9.184;2023-09-19T08:10:24;21.90;99.90
27741;DHT22;15134;48.768;9.184;2023-09-19T08:12:53;22.00;99.90
27741;DHT22;15134;48.768;9.184;2023-09-19T08:15:23;22.40;99.90
27741;DHT22;15134;48.768;9.184;2023-09-19T08:17:49;22.80;99.90
27741;DHT22;15134;48.768;9.184;2023-09-19T08:20:34;23.10;99.90
27741;DHT22;15134;48.768;9.184;2023-09-19T08:23:45;23.50;99.90
27741;DHT22;15134;48.768;9.184;2023-09-19T08:26:14;23.70;99.90
27741;DHT22;15134;48.768;9.184;2023-09-19T08:28:40;23.90;99.90
27741;DHT22;15134;48.768;9.184;2023-09-19T08:31:11;24.00;99.90
27741;DHT22;15134;48.768;9.184;2023-09-19T08:33:37;24.30;99.90
27741;DHT22;15134;48.768;9.184;2023-09-19T08:36:04;24.80;99.90
27741;DHT22;15134;48.768;9.184;2023-09-19T08:38:34;25.30;99.90
27741;DHT22;15134;48.768;9.184;2023-09-19T08:41:08;26.10;99.90
27741;DHT22;15134;48.768;9.184;2023-09-19T08:43:34;26.90;99.90
27741;DHT22;15134;48.768;9.184;2023-09-19T08:46:14;27.40;99.90
27741;DHT22;15134;48.768;9.184;2023-09-19T08:49:05;27.40;99.90
27741;DHT22;15134;48.768;9.184;2023-09-19T08:51:45;27.50;99.90
27741;DHT22;15134;48.768;9.184;2023-09-19T08:54:24;27.30;99.90
27741;DHT22;15134;48.768;9.184;2023-09-19T08:56:54;27.40;99.90
27741;DHT22;15134;48.768;9.184;2023-09-19T08:59:22;27.20;99.90
27741;DHT22;15134;48.768;9.184;2023-09-19T09:01:55;26.60;99.90
27741;DHT22;15134;48.768;9.184;2023-09-19T09:04:22;26.30;99.90
27741;DHT22;15134;48.768;9.184;2023-09-19T09:06:50;25.70;99.90
27741;DHT22;15134;48.768;9.184;2023-09-19T09:09:20;25.30;99.90
27741;DHT22;15134;48.768;9.184;2023-09-19T09:11:45;25.10;99.90
27741;DHT22;15134;48.768;9.184;2023-09-19T09:14:20;25.20;99.90
27741;DHT22;15134;48.768;9.184;2023-09-19T09:16:46;25.10;99.90
27741;DHT22;15134;48.768;9.184;2023-09-19T09:19:17;25.00;99.90
27741;DHT22;15134;48.768;9.184;2023-09-19T09:21:50;24.80;99.90
27741;DHT22;15134;48.768;9.184;2023-09-19T09:24:27;24.70;99.90
27741;DHT22;15134;48.768;9.184;2023-09-19T09:26:55;24.50;99.90
27741;DHT22;15134;48.768;9.184;2023-09-19T09:29:49;24.40;99.90
27741;DHT22;15134;48.768;9.184;2023-09-19T09:34:52;23.80;99.90
27741;DHT22;15134;48.768;9.184;2023-09-19T09:37:18;23.60;99.90
27741;DHT22;15134;48.768;9.184;2023-09-19T09:39:55;23.50;99.90
27741;DHT22;15134;48.768;9.184;2023-09-19T09:42:36;23.40;99.90
27741;DHT22;15134;48.768;9.184;2023-09-19T09:45:29;23.50;99.90
27741;DHT22;15134;48.768;9.184;2023-09-19T09:47:58;23.60;99.90
27741;DHT22;15134;48.768;9.184;2023-09-19T09:50:34;23.80;99.90
27741;DHT22;15134;48.768;9.184;2023-09-19T09:53:28;23.90;99.90
27741;DHT22;15134;48.768;9.184;2023-09-19T09:56:04;24.10;99.90
27741;DHT22;15134;48.768;9.184;2023-09-19T09:58:49;24.10;99.90
27741;DHT22;15134;48.768;9.184;2023-09-19T10:01:18;24.20;99.90
27741;DHT22;15134;48.768;9.184;2023-09-19T10:03:46;24.00;99.90
27741;DHT22;15134;48.768;9.184;2023-09-19T10:06:17;23.80;99.90
27741;DHT22;15134;48.768;9.184;2023-09-19T10:11:47;23.50;99.90
27741;DHT22;15134;48.768;9.184;2023-09-19T10:14:24;23.60;99.90
27741;DHT22;15134;48.768;9.184;2023-09-19T10:16:53;23.80;99.90
27741;DHT22;15134;48.768;9.184;2023-09-19T10:19:57;23.90;99.90
27741;DHT22;15134;48.768;9.184;2023-09-19T10:22:26;23.90;99.90
27741;DHT22;15134;48.768;9.184;2023-09-19T10:24:55;23.70;99.90
27741;DHT22;15134;48.768;9.184;2023-09-19T10:27:25;23.60;99.90
27741;DHT22;15134;48.768;9.184;2023-09-19T10:29:52;23.50;99.90
27741;DHT22;15134;48.768;9.184;2023-09-19T10:32:25;23.30;99.90
27741;DHT22;15134;48.768;9.184;2023-09-19T10:34:54;23.20;99.90
27741;DHT22;15134;48.768;9.184;2023-09-19T10:37:22;23.10;99.90
27741;DHT22;15134;48.768;9.184;2023-09-19T10:39:52;22.90;99.90
27741;DHT22;15134;48.768;9.184;2023-09-19T10:42:21;22.70;99.90
27741;DHT22;15134;48.768;9.184;2023-09-19T10:44:52;22.70;99.90
27741;DHT22;15134;48.768;9.184;2023-09-19T10:47:26;22.80;99.90
27741;DHT22;15134;48.768;9.184;2023-09-19T10:49:52;22.90;99.90
27741;DHT22;15134;48.768;9.184;2023-09-19T10:52:24;22.80;99.90
27741;DHT22;15134;48.768;9.184;2023-09-19T10:54:52;22.90;99.90
27741;DHT22;15134;48.768;9.184;2023-09-19T10:57:24;22.80;99.90
27741;DHT22;15134;48.768;9.184;2023-09-19T11:00:03;22.80;99.90
27741;DHT22;15134;48.768;9.184;2023-09-19T11:05:40;22.80;99.90
27741;DHT22;15134;48.768;9.184;2023-09-19T11:08:10;22.80;99.90
27741;DHT22;15134;48.768;9.184;2023-09-19T11:10:47;22.80;99.90
27741;DHT22;15134;48.768;9.184;2023-09-19T11:13:26;22.70;99.90
27741;DHT22;15134;48.768;9.184;2023-09-19T11:26:45;22.80;99.90
27741;DHT22;15134;48.768;9.184;2023-09-19T11:29:26;22.80;99.90
27741;DHT22;15134;48.768;9.184;2023-09-19T11:31:53;22.90;99.90
27741;DHT22;15134;48.768;9.184;2023-09-19T11:34:43;22.80;99.90
27741;DHT22;15134;48.768;9.184;2023-09-19T11:40:06;22.50;99.90
27741;DHT22;15134;48.768;9.184;2023-09-19T11:42:46;22.50;99.90
27741;DHT22;15134;48.768;9.184;2023-09-19T11:48:18;22.50;99.90
27741;DHT22;15134;48.768;9.184;2023-09-19T11:50:45;22.50;99.90
27741;DHT22;15134;48.768;9.184;2023-09-19T11:53:13;22.50;99.90
27741;DHT22;15134;48.768;9.184;2023-09-19T11:55:40;22.70;99.90
27741;DHT22;15134;48.768;9.184;2023-09-19T11:58:10;22.70;99.90
27741;DHT22;15134;48.768;9.184;2023-09-19T12:00:39;22.80;99.90
27741;DHT22;15134;48.768;9.184;2023-09-19T12:03:11;22.80;99.90
27741;DHT22;15134;48.768;9.184;2023-09-19T12:05:39;22.80;99.90
27741;DHT22;15134;48.768;9.184;2023-09-19T12:08:05;22.80;99.90
27741;DHT22;15134;48.768;9.184;2023-09-19T12:10:47;22.70;99.90
27741;DHT22;15134;48.768;9.184;2023-09-19T12:13:18;22.70;99.90
27741;DHT22;15134;48.768;9.184;2023-09-19T12:15:44;22.70;99.90
27741;DHT22;15134;48.768;9.184;2023-09-19T12:18:29;22.80;99.90
27741;DHT22;15134;48.768;9.184;2023-09-19T12:20:55;22.90;99.90
27741;DHT22;15134;48.768;9.184;2023-09-19T12:23:23;22.90;99.90
27741;DHT22;15134;48.768;9.184;2023-09-19T12:25:49;23.00;99.90
27741;DHT22;15134;48.768;9.184;2023-09-19T12:28:24;22.90;99.90
27741;DHT22;15134;48.768;9.184;2023-09-19T12:30:52;22.90;99.90
27741;DHT22;15134;48.768;9.184;2023-09-19T12:33:21;22.70;99.90
27741;DHT22;15134;48.768;9.184;2023-09-19T12:35:51;22.70;99.90
27741;DHT22;15134;48.768;9.184;2023-09-19T12:38:27;22.80;99.90
27741;DHT22;15134;48.768;9.184;2023-09-19T12:40:57;22.70;99.90
27741;DHT22;15134;48.768;9.184;2023-09-19T12:43:26;22.80;99.90
27741;DHT22;15134;48.768;9.184;2023-09-19T12:46:07;22.80;99.90
27741;DHT22;15134;48.768;9.184;2023-09-19T12:48:33;22.90;99.90
27741;DHT22;15134;48.768;9.184;2023-09-19T12:51:04;22.80;99.90
27741;DHT22;15134;48.768;9.184;2023-09-19T12:53:35;22.70;99.90
27741;DHT22;15134;48.768;9.184;2023-09-19T12:56:06;22.60;99.90
27741;DHT22;15134;48.768;9.184;2023-09-19T12:58:32;22.60;99.90
27741;DHT22;15134;48.768;9.184;2023-09-19T13:01:00;22.50;99.90
27741;DHT22;15134;48.768;9.184;2023-09-19T13:03:28;22.50;99.90
27741;DHT22;15134;48.768;9.184;2023-09-19T13:05:58;22.60;99.90
27741;DHT22;15134;48.768;9.184;2023-09-19T13:08:35;22.60;99.90
27741;DHT22;15134;48.768;9.184;2023-09-19T13:11:15;22.70;99.90
27741;DHT22;15134;48.768;9.184;2023-09-19T13:13:44;22.70;99.90
27741;DHT22;15134;48.768;9.184;2023-09-19T13:16:14;22.60;99.90
27741;DHT22;15134;48.768;9.184;2023-09-19T13:18:50;22.60;99.90
27741;DHT22;15134;48.768;9.184;2023-09-19T13:21:39;22.60;99.90
27741;DHT22;15134;48.768;9.184;2023-09-19T13:24:20;22.60;99.90
27741;DHT22;15134;48.768;9.184;2023-09-19T13:26:46;22.70;99.90
27741;DHT22;15134;48.768;9.184;2023-09-19T13:29:12;22.70;99.90
27741;DHT22;15134;48.768;9.184;2023-09-19T13:31:48;22.70;99.90
27741;DHT22;15134;48.768;9.184;2023-09-19T13:34:15;22.60;99.90
27741;DHT22;15134;48.768;9.184;2023-09-19T13:36:43;22.60;99.90
27741;DHT22;15134;48.768;9.184;2023-09-19T13:39:09;22.50;99.90
27741;DHT22;15134;48.768;9.184;2023-09-19T13:41:35;22.50;99.90
27741;DHT22;15134;48.768;9.184;2023-09-19T13:44:04;22.30;99.90
27741;DHT22;15134;48.768;9.184;2023-09-19T13:46:31;22.30;99.90
27741;DHT22;15134;48.768;9.184;2023-09-19T13:49:01;22.40;99.90
27741;DHT22;15134;48.768;9.184;2023-09-19T13:51:32;22.40;99.90
27741;DHT22;15134;48.768;9.184;2023-09-19T13:53:58;22.40;99.90
27741;DHT22;15134;48.768;9.184;2023-09-19T13:56:25;22.40;99.90
27741;DHT22;15134;48.768;9.184;2023-09-19T13:58:54;22.40;99.90
27741;DHT22;15134;48.768;9.184;2023-09-19T14:01:20;22.40;99.90
27741;DHT22;15134;48.768;9.184;2023-09-19T14:03:46;22.30;99.90
27741;DHT22;15134;48.768;9.184;2023-09-19T14:06:13;22.30;99.90
27741;DHT22;15134;48.768;9.184;2023-09-19T14:08:38;22.30;99.90
27741;DHT22;15134;48.768;9.184;2023-09-19T14:11:08;22.30;99.90
27741;DHT22;15134;48.768;9.184;2023-09-19T14:13:41;22.30;99.90
27741;DHT22;15134;48.768;9.184;2023-09-19T14:16:13;22.30;99.90
27741;DHT22;15134;48.768;9.184;2023-09-19T14:18:39;22.40;99.90
27741;DHT22;15134;48.768;9.184;2023-09-19T14:21:06;22.30;99.90
27741;DHT22;15134;48.768;9.184;2023-09-19T14:23:38;22.30;99.90
27741;DHT22;15134;48.768;9.184;2023-09-19T14:26:04;22.30;99.90
27741;DHT22;15134;48.768;9.184;2023-09-19T14:28:33;22.30;99.90
27741;DHT22;15134;48.768;9.184;2023-09-19T14:31:12;22.30;99.90
27741;DHT22;15134;48.768;9.184;2023-09-19T14:33:38;22.30;99.90
27741;DHT22;15134;48.768;9.184;2023-09-19T14:36:06;22.30;99.90
27741;DHT22;15134;48.768;9.184;2023-09-19T14:38:33;22.30;99.90
27741;DHT22;15134;48.768;9.184;2023-09-19T14:41:05;22.30;99.90
27741;DHT22;15134;48.768;9.184;2023-09-19T14:43:31;22.30;99.90
27741;DHT22;15134;48.768;9.184;2023-09-19T14:46:05;22.30;99.90
27741;DHT22;15134;48.768;9.184;2023-09-19T14:48:35;22.30;99.90
27741;DHT22;15134;48.768;9.184;2023-09-19T14:51:08;22.40;99.90
27741;DHT22;15134;48.768;9.184;2023-09-19T14:53:37;22.40;99.90
27741;DHT22;15134;48.768;9.184;2023-09-19T14:56:04;22.40;99.90
27741;DHT22;15134;48.768;9.184;2023-09-19T14:58:31;22.40;99.90
27741;DHT22;15134;48.768;9.184;2023-09-19T15:01:07;22.50;99.90
27741;DHT22;15134;48.768;9.184;2023-09-19T15:03:34;22.50;99.90
27741;DHT22;15134;48.768;9.184;2023-09-19T15:06:04;22.40;99.90
27741;DHT22;15134;48.768;9.184;2023-09-19T15:08:35;22.40;99.90
27741;DHT22;15134;48.768;9.184;2023-09-19T15:11:10;22.40;99.90
27741;DHT22;15134;48.768;9.184;2023-09-19T15:13:37;22.40;99.90
27741;DHT22;15134;48.768;9.184;2023-09-19T15:16:05;22.40;99.90
27741;DHT22;15134;48.768;9.184;2023-09-19T15:18:35;22.30;99.90
27741;DHT22;15134;48.768;9.184;2023-09-19T15:21:11;22.30;99.90
27741;DHT22;15134;48.768;9.184;2023-09-19T15:23:41;22.30;99.90
27741;DHT22;15134;48.768;9.184;2023-09-19T15:26:11;22.30;99.90
27741;DHT22;15134;48.768;9.184;2023-09-19T15:28:41;22.20;99.90
27741;DHT22;15134;48.768;9.184;2023-09-19T15:31:09;22.20;99.90
27741;DHT22;15134;48.768;9.184;2023-09-19T15:33:38;22.20;99.90
27741;DHT22;15134;48.768;9.184;2023-09-19T15:36:08;22.20;99.90
27741;DHT22;15134;48.768;9.184;2023-09-19T15:38:57;22.20;99.90
27741;DHT22;15134;48.768;9.184;2023-09-19T15:41:34;22.10;99.90
27741;DHT22;15134;48.768;9.184;2023-09-19T15:44:01;22.20;99.90
27741;DHT22;15134;48.768;9.184;2023-09-19T15:46:33;22.20;99.90
27741;DHT22;15134;48.768;9.184;2023-09-19T15:49:00;22.20;99.90
27741;DHT22;15134;48.768;9.184;2023-09-19T15:51:27;22.20;99.90
27741;DHT22;15134;48.768;9.184;2023-09-19T15:53:53;22.20;99.90
27741;DHT22;15134;48.768;9.184;2023-09-19T15:56:24;22.10;99.90
27741;DHT22;15134;48.768;9.184;2023-09-19T15:58:51;22.10;99.90
27741;DHT22;15134;48.768;9.184;2023-09-19T16:01:21;22.10;99.90
27741;DHT22;15134;48.768;9.184;2023-09-19T16:03:50;22.10;99.90
27741;DHT22;15134;48.768;9.184;2023-09-19T16:06:23;22.00;99.90
27741;DHT22;15134;48.768;9.184;2023-09-19T16:08:51;22.10;99.90
27741;DHT22;15134;48.768;9.184;2023-09-19T16:11:24;22.10;99.90
27741;DHT22;15134;48.768;9.184;2023-09-19T16:13:50;22.10;99.90
27741;DHT22;15134;48.768;9.184;2023-09-19T16:16:18;22.10;99.90
27741;DHT22;15134;48.768;9.184;2023-09-19T16:18:53;22.10;99.90
27741;DHT22;15134;48.768;9.184;2023-09-19T16:21:27;22.10;99.90
27741;DHT22;15134;48.768;9.184;2023-09-19T16:23:57;22.10;99.90
27741;DHT22;15134;48.768;9.184;2023-09-19T16:26:24;22.00;99.90
27741;DHT22;15134;48.768;9.184;2023-09-19T16:28:57;21.90;99.90
27741;DHT22;15134;48.768;9.184;2023-09-19T16:31:27;21.90;99.90
27741;DHT22;15134;48.768;9.184;2023-09-19T16:33:53;21.90;99.90
27741;DHT22;15134;48.768;9.184;2023-09-19T16:36:20;21.80;99.90
27741;DHT22;15134;48.768;9.184;2023-09-19T16:38:48;21.80;99.90